createdAt,value
2018-10-03T00:00:24.440Z,99.90
2018-10-03T00:02:53.286Z,99.90
2018-10-03T00:05:22.151Z,99.90
2018-10-03T00:07:51.036Z,99.90
2018-10-03T00:10:19.848Z,99.90
2018-10-03T00:12:48.653Z,99.90
2018-10-03T00:15:17.507Z,99.90
2018-10-03T00:17:46.294Z,99.90
2018-10-03T00:20:15.155Z,99.90
2018-10-03T00:22:43.943Z,99.90
2018-10-03T00:25:12.789Z,99.90
2018-10-03T00:27:41.582Z,99.90
2018-10-03T00:30:10.442Z,99.90
2018-10-03T00:32:39.272Z,99.90
2018-10-03T00:35:08.117Z,99.90
2018-10-03T00:37:36.905Z,99.90
2018-10-03T00:40:05.928Z,99.90
2018-10-03T00:42:34.822Z,99.90
2018-10-03T00:45:03.682Z,99.90
2018-10-03T00:47:32.596Z,99.90
2018-10-03T00:50:01.422Z,99.90
2018-10-03T00:52:30.384Z,99.90
2018-10-03T00:54:59.343Z,99.90
2018-10-03T00:57:28.261Z,99.90
2018-10-03T00:59:57.124Z,99.90
2018-10-03T01:02:25.999Z,99.90
2018-10-03T01:04:54.802Z,99.90
2018-10-03T01:07:23.654Z,99.90
2018-10-03T01:09:52.532Z,99.90
2018-10-03T01:12:21.348Z,99.90
2018-10-03T01:14:50.238Z,99.90
2018-10-03T01:17:19.068Z,99.90
2018-10-03T01:19:47.939Z,99.90
2018-10-03T01:22:16.776Z,99.90
2018-10-03T01:24:45.630Z,99.90
2018-10-03T01:27:14.429Z,99.90
2018-10-03T01:29:43.324Z,99.90
2018-10-03T01:32:12.166Z,99.90
2018-10-03T01:34:40.998Z,99.90
2018-10-03T01:37:09.809Z,99.90
2018-10-03T01:39:38.696Z,99.90
2018-10-03T01:42:07.914Z,99.90
2018-10-03T01:44:36.918Z,99.90
2018-10-03T01:47:05.866Z,99.90
2018-10-03T01:49:34.670Z,99.90
2018-10-03T01:52:03.523Z,99.90
2018-10-03T01:54:32.377Z,99.90
2018-10-03T01:57:01.236Z,99.90
2018-10-03T01:59:30.061Z,99.90
2018-10-03T02:01:59.022Z,99.90
2018-10-03T02:04:27.807Z,99.90
2018-10-03T02:06:56.659Z,99.90
2018-10-03T02:09:25.533Z,99.90
2018-10-03T02:11:54.432Z,99.90
2018-10-03T02:14:23.234Z,99.90
2018-10-03T02:16:52.073Z,99.90
2018-10-03T02:19:20.851Z,99.90
2018-10-03T02:21:49.681Z,99.90
2018-10-03T02:24:18.498Z,99.90
2018-10-03T02:26:47.362Z,99.90
2018-10-03T02:29:16.200Z,99.90
2018-10-03T02:31:45.025Z,99.90
2018-10-03T02:34:13.912Z,99.90
2018-10-03T02:36:42.794Z,99.90
2018-10-03T02:39:11.699Z,99.90
2018-10-03T02:41:40.548Z,99.90
2018-10-03T02:44:09.457Z,99.90
2018-10-03T02:46:38.276Z,99.90
2018-10-03T02:49:07.259Z,99.90
2018-10-03T02:51:36.080Z,99.90
2018-10-03T02:54:04.926Z,99.90
2018-10-03T02:56:33.746Z,99.90
2018-10-03T02:59:02.600Z,99.90
2018-10-03T03:01:31.428Z,99.90
2018-10-03T03:04:00.307Z,99.90
2018-10-03T03:06:29.166Z,99.90
2018-10-03T03:08:58.070Z,99.90
2018-10-03T03:11:26.932Z,99.90
2018-10-03T03:13:55.812Z,99.90
2018-10-03T03:16:24.654Z,99.90
2018-10-03T03:18:53.481Z,99.90
2018-10-03T03:21:22.333Z,99.90
2018-10-03T03:23:51.136Z,99.90
2018-10-03T03:26:19.958Z,99.90
2018-10-03T03:28:48.802Z,99.90
2018-10-03T03:31:17.659Z,99.90
2018-10-03T03:33:46.467Z,99.90
2018-10-03T03:36:15.354Z,99.90
2018-10-03T03:38:44.192Z,99.90
2018-10-03T03:41:13.021Z,99.90
2018-10-03T03:43:41.990Z,99.90
2018-10-03T03:46:10.796Z,99.90
2018-10-03T03:48:39.587Z,99.90
2018-10-03T03:51:08.583Z,99.90
2018-10-03T03:53:37.372Z,99.90
2018-10-03T03:56:06.211Z,99.90
2018-10-03T03:58:35.043Z,99.90
2018-10-03T04:01:03.825Z,99.90
2018-10-03T04:03:32.699Z,99.90
2018-10-03T04:06:01.494Z,99.90
2018-10-03T04:08:30.388Z,99.90
2018-10-03T04:10:59.224Z,99.90
2018-10-03T04:13:28.054Z,99.90
2018-10-03T04:15:56.822Z,99.90
2018-10-03T04:18:25.675Z,99.90
2018-10-03T04:20:54.484Z,99.90
2018-10-03T04:23:23.369Z,99.90
2018-10-03T04:25:52.175Z,99.90
2018-10-03T04:28:21.041Z,99.90
2018-10-03T04:30:49.906Z,99.90
2018-10-03T04:33:18.727Z,99.90
2018-10-03T04:35:47.823Z,99.90
2018-10-03T04:38:16.727Z,99.90
2018-10-03T04:40:45.769Z,99.90
2018-10-03T04:43:14.906Z,99.90
2018-10-03T04:45:43.858Z,99.90
2018-10-03T04:48:12.915Z,99.90
2018-10-03T04:50:41.747Z,99.90
2018-10-03T04:53:10.557Z,99.90
2018-10-03T04:55:39.437Z,99.90
2018-10-03T04:58:08.231Z,99.90
2018-10-03T05:00:37.081Z,99.90
2018-10-03T05:03:06.381Z,99.90
2018-10-03T05:05:35.243Z,99.90
2018-10-03T05:08:04.095Z,99.90
2018-10-03T05:10:32.920Z,99.90
2018-10-03T05:13:01.758Z,99.90
2018-10-03T05:15:30.577Z,99.90
2018-10-03T05:17:59.787Z,99.90
2018-10-03T05:20:28.722Z,99.90
2018-10-03T05:22:58.299Z,99.90
2018-10-03T05:25:27.749Z,99.90
2018-10-03T05:27:57.985Z,99.90
2018-10-03T05:30:26.910Z,99.90
2018-10-03T05:32:56.788Z,99.90
2018-10-03T05:35:25.713Z,99.90
2018-10-03T05:37:54.521Z,99.90
2018-10-03T05:40:23.381Z,99.90
2018-10-03T05:42:52.412Z,99.90
2018-10-03T05:45:21.211Z,99.90
2018-10-03T05:47:50.049Z,99.90
2018-10-03T05:50:18.872Z,99.90
2018-10-03T05:52:47.720Z,99.90
2018-10-03T05:55:16.564Z,99.90
2018-10-03T05:57:45.364Z,99.90
2018-10-03T06:00:14.289Z,99.90
2018-10-03T06:02:43.204Z,99.90
2018-10-03T06:05:12.245Z,99.90
2018-10-03T06:07:41.097Z,99.90
2018-10-03T06:10:09.946Z,99.90
2018-10-03T06:12:40.150Z,99.90
2018-10-03T06:15:09.184Z,99.90
2018-10-03T06:17:38.078Z,99.90
2018-10-03T06:20:07.924Z,99.90
2018-10-03T06:22:37.100Z,99.90
2018-10-03T06:25:05.991Z,99.90
2018-10-03T06:27:34.853Z,99.90
2018-10-03T06:30:03.830Z,99.90
2018-10-03T06:32:32.689Z,99.90
2018-10-03T06:35:01.543Z,99.90
2018-10-03T06:37:30.480Z,99.90
2018-10-03T06:39:59.323Z,99.90
2018-10-03T06:42:28.233Z,99.90
2018-10-03T06:44:57.147Z,99.90
2018-10-03T06:47:26.050Z,99.90
2018-10-03T06:49:54.950Z,99.90
2018-10-03T06:52:23.764Z,99.90
2018-10-03T06:54:52.576Z,99.90
2018-10-03T06:57:21.504Z,99.90
2018-10-03T06:59:50.457Z,99.90
2018-10-03T07:02:22.285Z,99.90
2018-10-03T07:04:51.999Z,99.90
2018-10-03T07:07:21.004Z,99.90
2018-10-03T07:09:50.060Z,99.90
2018-10-03T07:12:19.187Z,99.90
2018-10-03T07:14:48.128Z,99.90
2018-10-03T07:17:17.013Z,99.90
2018-10-03T07:19:45.860Z,99.90
2018-10-03T07:22:14.715Z,99.90
2018-10-03T07:24:43.625Z,99.90
2018-10-03T07:27:12.510Z,99.90
2018-10-03T07:29:41.469Z,99.90
2018-10-03T07:32:10.353Z,99.90
2018-10-03T07:34:39.271Z,99.90
2018-10-03T07:37:08.083Z,99.90
2018-10-03T07:39:36.957Z,99.90
2018-10-03T07:42:05.845Z,99.90
2018-10-03T07:44:39.958Z,99.90
2018-10-03T07:47:08.897Z,99.90
2018-10-03T07:49:38.333Z,99.90
2018-10-03T07:52:07.512Z,99.90
2018-10-03T07:54:36.391Z,99.90
2018-10-03T07:57:05.296Z,99.90
2018-10-03T07:59:34.115Z,99.90
2018-10-03T08:02:03.187Z,99.90
2018-10-03T08:04:32.167Z,99.90
2018-10-03T08:07:01.060Z,99.70
2018-10-03T08:09:29.895Z,99.40
2018-10-03T08:11:58.797Z,99.00
2018-10-03T08:14:28.789Z,98.40
2018-10-03T08:16:57.637Z,95.60
2018-10-03T08:19:26.446Z,94.00
2018-10-03T08:21:55.508Z,92.90
2018-10-03T08:24:24.618Z,91.70
2018-10-03T08:26:53.540Z,90.40
2018-10-03T08:29:22.467Z,90.00
2018-10-03T08:31:52.423Z,89.40
2018-10-03T08:34:23.775Z,85.90
2018-10-03T08:36:53.131Z,82.50
2018-10-03T08:39:28.957Z,83.50
2018-10-03T08:41:58.277Z,83.50
2018-10-03T08:44:32.025Z,80.30
2018-10-03T08:47:08.307Z,80.00
2018-10-03T08:49:40.187Z,79.00
2018-10-03T08:52:09.347Z,76.60
2018-10-03T08:54:43.030Z,78.60
2018-10-03T08:57:21.026Z,75.70
2018-10-03T08:59:55.680Z,76.30
2018-10-03T09:02:25.145Z,77.00
2018-10-03T09:04:54.380Z,78.30
2018-10-03T09:07:32.400Z,80.90
2018-10-03T09:10:03.577Z,82.10
2018-10-03T09:12:40.284Z,85.20
2018-10-03T09:15:09.947Z,87.90
2018-10-03T09:17:40.583Z,86.20
2018-10-03T09:20:11.649Z,86.20
2018-10-03T09:22:49.161Z,88.60
2018-10-03T09:25:24.247Z,89.10
2018-10-03T09:28:01.079Z,90.30
2018-10-03T09:30:31.417Z,90.90
2018-10-03T09:33:19.095Z,91.90
2018-10-03T09:35:48.536Z,90.80
2018-10-03T09:38:24.381Z,91.30
2018-10-03T09:40:55.076Z,91.10
2018-10-03T09:43:24.048Z,91.70
2018-10-03T09:46:00.067Z,91.10
2018-10-03T09:48:29.471Z,90.70
2018-10-03T09:51:02.305Z,89.60
2018-10-03T09:53:35.414Z,88.20
2018-10-03T09:56:04.650Z,85.10
2018-10-03T09:58:37.688Z,84.60
2018-10-03T10:01:13.219Z,81.50
2018-10-03T10:03:42.386Z,82.70
2018-10-03T10:06:11.213Z,80.50
2018-10-03T10:08:52.047Z,79.10
2018-10-03T10:11:22.296Z,79.00
2018-10-03T10:14:00.539Z,81.10
2018-10-03T10:16:29.394Z,80.30
2018-10-03T10:19:06.121Z,80.90
2018-10-03T10:21:41.983Z,81.70
2018-10-03T10:24:11.044Z,83.70
2018-10-03T10:26:40.291Z,83.50
2018-10-03T10:29:16.761Z,83.00
2018-10-03T10:31:54.564Z,84.20
2018-10-03T10:34:32.845Z,82.30
2018-10-03T10:37:12.109Z,84.10
2018-10-03T10:39:41.230Z,84.70
2018-10-03T10:42:15.220Z,83.40
2018-10-03T10:44:44.129Z,80.90
2018-10-03T10:47:17.312Z,83.20
2018-10-03T10:49:53.291Z,82.20
2018-10-03T10:52:22.854Z,79.90
2018-10-03T10:54:51.576Z,80.70
2018-10-03T10:57:24.914Z,76.90
2018-10-03T10:59:58.323Z,80.70
2018-10-03T11:02:34.090Z,80.90
2018-10-03T11:05:03.266Z,79.60
2018-10-03T11:07:32.485Z,77.90
2018-10-03T11:10:08.456Z,78.90
2018-10-03T11:12:42.115Z,81.40
2018-10-03T11:15:11.333Z,82.10
2018-10-03T11:17:48.161Z,82.30
2018-10-03T11:20:21.885Z,84.00
2018-10-03T11:22:56.205Z,82.50
2018-10-03T11:25:29.265Z,81.10
2018-10-03T11:28:05.221Z,81.30
2018-10-03T11:30:36.819Z,78.30
2018-10-03T11:33:15.453Z,76.20
2018-10-03T11:35:45.120Z,75.80
2018-10-03T11:38:18.055Z,74.20
2018-10-03T11:40:47.216Z,75.20
2018-10-03T11:43:19.862Z,74.60
2018-10-03T11:46:01.694Z,76.00
2018-10-03T11:48:31.436Z,75.30
2018-10-03T11:51:09.913Z,77.70
2018-10-03T11:53:40.189Z,73.90
2018-10-03T11:56:08.971Z,72.70
2018-10-03T11:58:46.675Z,71.60
2018-10-03T12:01:34.552Z,69.30
2018-10-03T12:04:03.618Z,71.50
2018-10-03T12:06:33.997Z,74.50
2018-10-03T12:09:16.334Z,82.80
2018-10-03T12:11:45.337Z,92.40
2018-10-03T12:14:15.725Z,95.80
2018-10-03T12:16:44.804Z,99.90
2018-10-03T12:19:13.751Z,99.90
2018-10-03T12:21:43.460Z,99.90
2018-10-03T12:24:14.832Z,99.90
2018-10-03T12:26:48.729Z,99.90
2018-10-03T12:29:21.179Z,99.90
2018-10-03T12:31:55.419Z,99.90
2018-10-03T12:34:28.648Z,99.90
2018-10-03T12:37:01.451Z,99.90
2018-10-03T12:39:31.609Z,99.90
2018-10-03T12:42:05.519Z,99.90
2018-10-03T12:44:34.753Z,99.90
2018-10-03T12:47:08.164Z,99.90
2018-10-03T12:49:38.355Z,99.30
2018-10-03T12:52:16.790Z,99.40
2018-10-03T12:54:51.495Z,96.90
2018-10-03T12:57:25.363Z,96.40
2018-10-03T12:59:55.240Z,95.50
2018-10-03T13:02:24.388Z,95.40
2018-10-03T13:04:56.133Z,96.80
2018-10-03T13:07:34.664Z,95.80
2018-10-03T13:10:03.913Z,95.30
2018-10-03T13:12:40.221Z,94.40
2018-10-03T13:15:14.555Z,94.40
2018-10-03T13:17:44.504Z,94.10
2018-10-03T13:20:18.212Z,93.10
2018-10-03T13:22:57.784Z,93.10
2018-10-03T13:25:31.749Z,93.50
2018-10-03T13:28:00.911Z,95.00
2018-10-03T13:30:40.751Z,95.70
2018-10-03T13:33:13.205Z,96.00
2018-10-03T13:35:42.210Z,94.80
2018-10-03T13:38:18.321Z,94.50
2018-10-03T13:40:55.805Z,93.70
2018-10-03T13:43:26.871Z,94.90
2018-10-03T13:46:11.006Z,94.90
2018-10-03T13:48:40.452Z,95.50
2018-10-03T13:51:22.086Z,95.30
2018-10-03T13:53:57.638Z,95.40
2018-10-03T13:56:29.254Z,94.80
2018-10-03T13:58:58.311Z,93.90
2018-10-03T14:01:27.130Z,93.40
2018-10-03T14:04:03.755Z,93.10
2018-10-03T14:06:32.641Z,91.70
2018-10-03T14:09:12.559Z,91.80
2018-10-03T14:11:41.426Z,92.40
2018-10-03T14:14:10.441Z,92.20
2018-10-03T14:16:49.918Z,91.70
2018-10-03T14:19:19.058Z,92.10
2018-10-03T14:21:49.716Z,90.90
2018-10-03T14:24:32.124Z,90.40
2018-10-03T14:27:01.461Z,90.00
2018-10-03T14:29:30.943Z,90.60
2018-10-03T14:32:02.417Z,90.00
2018-10-03T14:34:42.496Z,90.70
2018-10-03T14:37:13.650Z,90.70
2018-10-03T14:39:52.370Z,91.80
2018-10-03T14:42:30.537Z,91.30
2018-10-03T14:45:09.196Z,91.10
2018-10-03T14:47:38.101Z,91.20
2018-10-03T14:50:13.627Z,91.30
2018-10-03T14:52:50.937Z,92.10
2018-10-03T14:55:25.064Z,92.30
2018-10-03T14:57:56.681Z,92.80
2018-10-03T15:00:37.318Z,92.70
2018-10-03T15:03:12.898Z,93.70
2018-10-03T15:05:44.326Z,93.50
2018-10-03T15:08:13.128Z,94.40
2018-10-03T15:10:48.015Z,93.20
2018-10-03T15:13:20.447Z,93.70
2018-10-03T15:15:50.865Z,94.40
2018-10-03T15:18:23.565Z,94.00
2018-10-03T15:20:52.695Z,94.40
2018-10-03T15:23:21.805Z,94.70
2018-10-03T15:25:52.538Z,94.70
2018-10-03T15:28:29.327Z,94.90
2018-10-03T15:31:04.869Z,94.80
2018-10-03T15:33:42.990Z,94.50
2018-10-03T15:36:22.175Z,94.50
2018-10-03T15:38:51.236Z,93.80
2018-10-03T15:41:20.087Z,93.50
2018-10-03T15:44:08.300Z,93.50
2018-10-03T15:46:44.791Z,93.30
2018-10-03T15:49:17.108Z,91.70
2018-10-03T15:51:51.809Z,90.90
2018-10-03T15:54:28.348Z,90.80
2018-10-03T15:56:57.712Z,91.10
2018-10-03T15:59:28.644Z,91.20
2018-10-03T16:01:57.618Z,91.20
2018-10-03T16:04:40.010Z,91.50
2018-10-03T16:07:17.094Z,91.70
2018-10-03T16:09:46.286Z,91.70
2018-10-03T16:12:15.061Z,92.50
2018-10-03T16:14:50.080Z,92.60
2018-10-03T16:17:33.820Z,92.60
2018-10-03T16:20:09.568Z,92.80
2018-10-03T16:22:49.177Z,92.70
2018-10-03T16:25:23.118Z,93.50
2018-10-03T16:27:59.981Z,93.50
2018-10-03T16:30:34.777Z,94.00
2018-10-03T16:33:14.573Z,94.50
2018-10-03T16:35:56.394Z,94.80
2018-10-03T16:38:33.813Z,95.10
2018-10-03T16:41:07.045Z,95.30
2018-10-03T16:43:44.992Z,95.70
2018-10-03T16:46:14.829Z,95.90
2018-10-03T16:48:45.670Z,95.80
2018-10-03T16:51:15.015Z,96.10
2018-10-03T16:53:44.118Z,96.30
2018-10-03T16:56:13.458Z,96.50
2018-10-03T16:58:42.854Z,97.10
2018-10-03T17:01:12.569Z,97.30
2018-10-03T17:03:43.454Z,96.90
2018-10-03T17:06:24.714Z,96.70
2018-10-03T17:08:57.010Z,96.40
2018-10-03T17:11:26.093Z,96.40
2018-10-03T17:14:41.864Z,96.30
2018-10-03T17:17:24.991Z,96.20
2018-10-03T17:20:05.322Z,95.80
2018-10-03T17:22:51.311Z,96.10
2018-10-03T17:25:35.887Z,96.20
2018-10-03T17:28:16.760Z,95.60
2018-10-03T17:30:58.573Z,96.20
2018-10-03T17:33:31.636Z,96.50
2018-10-03T17:36:15.212Z,96.80
2018-10-03T17:38:52.852Z,97.10
2018-10-03T17:41:22.171Z,97.70
2018-10-03T17:43:57.352Z,98.30
2018-10-03T17:46:31.194Z,98.80
2018-10-03T17:49:00.733Z,99.20
2018-10-03T17:51:30.654Z,99.00
2018-10-03T17:54:00.586Z,99.40
2018-10-03T17:56:40.316Z,99.90
2018-10-03T17:59:12.944Z,99.90
2018-10-03T18:01:50.149Z,99.90
2018-10-03T18:04:21.813Z,99.90
2018-10-03T18:06:57.706Z,99.90
2018-10-03T18:09:26.901Z,99.90
2018-10-03T18:11:55.913Z,99.90
2018-10-03T18:14:27.792Z,99.90
2018-10-03T18:16:57.036Z,99.90
2018-10-03T18:19:26.211Z,99.90
2018-10-03T18:21:55.391Z,99.90
2018-10-03T18:24:24.576Z,99.90
2018-10-03T18:26:53.598Z,99.90
2018-10-03T18:29:22.449Z,99.90
2018-10-03T18:31:51.253Z,99.90
2018-10-03T18:34:20.132Z,99.90
2018-10-03T18:36:50.134Z,99.90
2018-10-03T18:39:19.880Z,99.90
2018-10-03T18:41:49.028Z,99.90
2018-10-03T18:44:18.229Z,99.90
2018-10-03T18:46:47.131Z,99.90
2018-10-03T18:49:16.048Z,99.90
2018-10-03T18:51:44.895Z,99.90
2018-10-03T18:54:14.047Z,99.90
2018-10-03T18:56:43.034Z,99.90
2018-10-03T18:59:12.143Z,99.90
2018-10-03T19:01:41.020Z,99.90
2018-10-03T19:04:10.733Z,99.90
2018-10-03T19:06:39.569Z,99.90
2018-10-03T19:09:09.831Z,99.90
2018-10-03T19:11:38.795Z,99.90
2018-10-03T19:14:08.021Z,99.90
2018-10-03T19:16:37.660Z,99.90
2018-10-03T19:19:06.569Z,99.90
2018-10-03T19:21:36.515Z,99.90
2018-10-03T19:24:05.479Z,99.90
2018-10-03T19:26:34.410Z,99.90
2018-10-03T19:29:03.635Z,99.90
2018-10-03T19:31:32.750Z,99.90
2018-10-03T19:34:02.125Z,99.90
2018-10-03T19:36:31.529Z,99.90
2018-10-03T19:39:00.523Z,99.90
2018-10-03T19:41:30.308Z,99.90
2018-10-03T19:43:59.503Z,99.90
2018-10-03T19:46:28.732Z,99.90
2018-10-03T19:48:57.770Z,99.90
2018-10-03T19:51:27.096Z,99.90
2018-10-03T19:53:56.001Z,99.90
2018-10-03T19:56:24.860Z,99.90
2018-10-03T19:58:53.747Z,99.90
2018-10-03T20:01:22.607Z,99.90
2018-10-03T20:03:51.437Z,99.90
2018-10-03T20:06:20.329Z,99.90
2018-10-03T20:08:49.276Z,99.90
2018-10-03T20:11:19.907Z,99.90
2018-10-03T20:13:48.838Z,99.90
2018-10-03T20:16:17.740Z,99.90
2018-10-03T20:18:46.612Z,99.90
2018-10-03T20:21:15.437Z,99.90
2018-10-03T20:23:44.326Z,99.90
2018-10-03T20:26:13.170Z,99.90
2018-10-03T20:28:42.134Z,99.90
2018-10-03T20:31:11.054Z,99.90
2018-10-03T20:33:39.949Z,99.90
2018-10-03T20:36:08.794Z,99.90
2018-10-03T20:38:37.612Z,99.90
2018-10-03T20:41:06.671Z,99.90
2018-10-03T20:43:35.495Z,99.90
2018-10-03T20:46:04.411Z,99.90
2018-10-03T20:48:33.291Z,99.90
2018-10-03T20:51:02.179Z,99.90
2018-10-03T20:53:31.016Z,99.90
2018-10-03T20:55:59.882Z,99.90
2018-10-03T20:58:28.752Z,99.90
2018-10-03T21:00:57.697Z,99.90
2018-10-03T21:03:26.637Z,99.90
2018-10-03T21:05:55.499Z,99.90
2018-10-03T21:08:24.404Z,99.90
2018-10-03T21:10:53.242Z,99.90
2018-10-03T21:13:22.160Z,99.90
2018-10-03T21:15:50.973Z,99.90
2018-10-03T21:18:19.987Z,99.90
2018-10-03T21:20:48.847Z,99.90
2018-10-03T21:23:17.708Z,99.90
2018-10-03T21:25:46.548Z,99.90
2018-10-03T21:28:15.413Z,99.90
2018-10-03T21:30:44.268Z,99.90
2018-10-03T21:33:13.137Z,99.90
2018-10-03T21:35:41.925Z,99.90
2018-10-03T21:38:10.782Z,99.90
2018-10-03T21:40:39.590Z,99.90
2018-10-03T21:43:08.441Z,99.90
2018-10-03T21:45:37.381Z,99.90
2018-10-03T21:48:06.380Z,99.90
2018-10-03T21:50:35.341Z,99.90
2018-10-03T21:53:04.226Z,99.90
2018-10-03T21:55:33.080Z,99.90
2018-10-03T21:58:01.963Z,99.90
2018-10-03T22:00:36.102Z,99.90
2018-10-03T22:03:05.229Z,99.90
2018-10-03T22:05:34.035Z,99.90
2018-10-03T22:08:02.843Z,99.90
2018-10-03T22:10:32.284Z,99.90
2018-10-03T22:13:01.089Z,99.90
2018-10-03T22:15:29.962Z,99.90
2018-10-03T22:17:58.828Z,99.90
2018-10-03T22:20:27.707Z,99.90
2018-10-03T22:22:56.634Z,99.90
2018-10-03T22:25:25.517Z,99.90
2018-10-03T22:27:54.370Z,99.90
2018-10-03T22:30:23.222Z,99.90
2018-10-03T22:32:52.120Z,99.90
2018-10-03T22:35:20.960Z,99.90
2018-10-03T22:37:49.749Z,99.90
2018-10-03T22:40:18.550Z,99.90
2018-10-03T22:42:47.390Z,99.90
2018-10-03T22:45:16.262Z,99.90
2018-10-03T22:47:45.152Z,99.90
2018-10-03T22:50:13.968Z,99.90
2018-10-03T22:52:42.820Z,99.90
2018-10-03T22:55:11.631Z,99.90
2018-10-03T22:57:40.601Z,99.90
2018-10-03T23:00:10.030Z,99.90
2018-10-03T23:02:38.918Z,99.90
2018-10-03T23:05:07.769Z,99.90
2018-10-03T23:07:36.702Z,99.90
2018-10-03T23:10:06.517Z,99.90
2018-10-03T23:12:35.409Z,99.90
2018-10-03T23:15:04.300Z,99.90
2018-10-03T23:17:33.108Z,99.90
2018-10-03T23:20:01.944Z,99.90
2018-10-03T23:22:30.791Z,99.90
2018-10-03T23:24:59.676Z,99.90
2018-10-03T23:27:28.489Z,99.90
2018-10-03T23:29:57.328Z,99.90
2018-10-03T23:32:26.134Z,99.90
2018-10-03T23:34:54.966Z,99.90
2018-10-03T23:37:23.770Z,99.90
2018-10-03T23:39:52.632Z,99.90
2018-10-03T23:42:21.439Z,99.90
2018-10-03T23:44:50.287Z,99.90
2018-10-03T23:47:19.128Z,99.90
2018-10-03T23:49:47.995Z,99.90
2018-10-03T23:52:16.788Z,99.90
2018-10-03T23:54:45.634Z,99.90
2018-10-03T23:57:14.434Z,99.90
2018-10-03T23:59:43.381Z,99.90
